Time;durP1;ratioP1;P1;durP2;ratioP2;P2;SDS_P1;SDS_P2;PMS_P1;PMS_P2;Temp;Humidity;BMP_temperature;BMP_pressure;BME280_temperature;BME280_humidity;BME280_pressure;Samples;Min_cycle;Max_cycle;Signal;HPM_P1;HPM_P2
2022/07/18 06:08:09;;;;;;;0.93;0.20;;;;;;;18.25;100.00;100143.19;1797432;78;28113;-53
2022/07/18 06:10:35;;;;;;;0.30;0.28;;;;;;;18.03;100.00;100135.73;1774720;78;20977;-52
2022/07/18 06:13:02;;;;;;;2.02;0.30;;;;;;;17.92;100.00;100141.08;1777023;79;21467;-54
2022/07/18 06:15:29;;;;;;;0.37;0.30;;;;;;;17.86;100.00;100145.13;1770749;79;21019;-53
2022/07/18 06:17:56;;;;;;;2.37;0.37;;;;;;;17.81;100.00;100140.48;1777721;79;22131;-54
2022/07/18 06:20:23;;;;;;;0.45;0.30;;;;;;;17.79;100.00;100141.08;1773577;79;20990;-53
2022/07/18 06:22:49;;;;;;;0.50;0.30;;;;;;;17.78;100.00;100141.21;1773524;79;21090;-53
2022/07/18 06:25:15;;;;;;;1.75;0.65;;;;;;;17.73;100.00;100142.40;1778921;78;21256;-53
2022/07/18 06:27:43;;;;;;;2.40;0.23;;;;;;;17.69;100.00;100140.02;1778953;79;21045;-54
2022/07/18 06:30:10;;;;;;;0.47;0.20;;;;;;;17.67;100.00;100139.25;1779460;78;21052;-53
2022/07/18 06:32:38;;;;;;;0.55;0.20;;;;;;;17.65;100.00;100128.47;1777934;78;20914;-54
2022/07/18 06:35:22;;;;;;;1.85;0.23;;;;;;;17.66;100.00;100136.14;1775370;79;21061;-54
2022/07/18 06:37:50;;;;;;;0.70;0.30;;;;;;;17.67;100.00;100137.89;1776707;79;21252;-54
2022/07/18 06:40:17;;;;;;;0.60;0.30;;;;;;;17.69;100.00;100131.33;1777409;79;21043;-53
2022/07/18 06:42:43;;;;;;;1.50;0.30;;;;;;;17.73;100.00;100134.72;1774493;79;21042;-54
2022/07/18 06:45:11;;;;;;;0.60;0.30;;;;;;;17.75;100.00;100135.00;1773609;78;21491;-55
2022/07/18 06:47:37;;;;;;;2.30;0.20;;;;;;;17.80;100.00;100139.23;1777558;79;20884;-53
2022/07/18 06:50:04;;;;;;;0.30;0.30;;;;;;;17.83;100.00;100135.80;1780587;79;21891;-55
2022/07/18 06:52:31;;;;;;;0.90;0.25;;;;;;;17.86;100.00;100132.00;1782557;78;21021;-53
2022/07/18 06:54:57;;;;;;;1.75;0.30;;;;;;;17.91;100.00;100132.52;1776067;79;21594;-55
2022/07/18 06:57:24;;;;;;;0.40;0.30;;;;;;;17.97;100.00;100130.22;1763885;79;21355;-55
2022/07/18 06:59:50;;;;;;;2.25;0.30;;;;;;;18.02;100.00;100127.18;1731890;80;21064;-53
2022/07/18 07:02:17;;;;;;;2.45;0.30;;;;;;;18.04;100.00;100130.14;1732575;80;21142;-53
2022/07/18 07:04:43;;;;;;;0.80;0.28;;;;;;;18.07;100.00;100132.66;1742469;80;21065;-55
2022/07/18 07:07:10;;;;;;;1.30;0.30;;;;;;;18.12;100.00;100134.54;1735556;80;21497;-53
2022/07/18 07:09:38;;;;;;;1.05;0.20;;;;;;;18.19;100.00;100135.48;1723977;81;21066;-54
2022/07/18 07:12:05;;;;;;;0.45;0.20;;;;;;;18.20;100.00;100131.77;1725794;81;21073;-55
2022/07/18 08:47:03;;;;;;;0.40;0.20;;;;;;;18.20;100.00;100137.22;1627416;81;984874;-53
2022/07/18 08:49:30;;;;;;;1.20;0.10;;;;;;;18.20;100.00;100137.22;1707878;81;21110;-54
2022/07/18 08:51:57;;;;;;;0.10;0.10;;;;;;;19.97;100.00;100130.73;1712202;81;21560;-55
2022/07/18 08:54:25;;;;;;;0.10;0.10;;;;;;;19.97;100.00;100132.97;1723374;81;21499;-54
2022/07/18 08:56:52;;;;;;;1.57;0.10;;;;;;;20.05;100.00;100129.61;1718998;81;21198;-55
2022/07/18 08:59:18;;;;;;;0.10;0.10;;;;;;;20.12;100.00;100121.77;1722627;81;21044;-55
2022/07/18 10:47:27;;;;;;;0.20;0.10;;;;;;;20.13;100.00;100135.31;1715341;81;793718;-55
2022/07/18 10:49:59;;;;;;;0.17;0.10;;;;;;;20.13;100.00;100135.31;1680890;81;21102;-55
2022/07/18 10:52:38;;;;;;;1.20;0.10;;;;;;;22.13;100.00;100097.06;1728538;81;21587;-54
2022/07/18 10:55:27;;;;;;;0.10;0.10;;;;;;;22.21;100.00;100097.23;1724460;81;21246;-54
2022/07/18 10:57:59;;;;;;;0.17;0.00;;;;;;;22.33;100.00;100102.11;1719809;81;21039;-56
2022/07/18 11:00:30;;;;;;;0.03;0.03;;;;;;;22.41;100.00;100099.53;1722655;81;21140;-54
2022/07/18 11:03:07;;;;;;;0.08;0.08;;;;;;;22.42;100.00;100085.69;1723591;81;21105;-53
2022/07/18 11:09:39;;;;;;;0.10;0.10;;;;;;;22.43;100.00;100088.79;1722261;81;21125;-52
2022/07/18 11:12:27;;;;;;;0.00;0.00;;;;;;;22.43;100.00;100088.79;1723358;81;22297;-53
2022/07/18 16:27:49;;;;;;;0.83;0.10;;;;;;;22.49;100.00;100093.70;1568308;81;985195;-55
2022/07/18 16:37:23;;;;;;;0.10;0.10;;;;;;;22.49;100.00;100093.70;1523605;81;984816;-56
2022/07/18 16:39:50;;;;;;;0.10;0.10;;;;;;;22.49;100.00;100093.70;1720300;81;21109;-57
2022/07/18 16:42:17;;;;;;;0.10;0.10;;;;;;;21.43;100.00;100074.59;1728513;81;21082;-56
2022/07/18 16:44:44;;;;;;;0.20;0.10;;;;;;;21.36;100.00;100076.10;1720883;81;21165;-57
2022/07/18 16:47:12;;;;;;;0.10;0.10;;;;;;;21.31;100.00;100072.91;1721005;81;21571;-56
2022/07/18 16:49:40;;;;;;;0.10;0.10;;;;;;;21.26;100.00;100069.22;1725164;81;21025;-55
